createdAt,value
2022-09-28T00:01:25.112Z,67.80
2022-09-28T00:03:54.654Z,67.70
2022-09-28T00:06:24.538Z,68.00
2022-09-28T00:08:51.974Z,68.10
2022-09-28T00:11:21.057Z,67.80
2022-09-28T00:13:52.647Z,68.00
2022-09-28T00:16:22.799Z,68.00
2022-09-28T00:18:51.168Z,67.90
2022-09-28T00:21:23.758Z,68.10
2022-09-28T00:24:17.233Z,67.80
2022-09-28T00:26:54.153Z,68.10
2022-09-28T00:29:24.009Z,68.10
2022-09-28T00:32:00.565Z,68.10
2022-09-28T00:34:28.374Z,68.20
2022-09-28T00:36:55.121Z,68.10
2022-09-28T00:39:22.090Z,68.20
2022-09-28T00:41:48.986Z,68.10
2022-09-28T00:44:37.045Z,68.10
2022-09-28T00:47:31.737Z,68.20
2022-09-28T00:50:01.745Z,68.10
2022-09-28T00:52:46.589Z,68.30
2022-09-28T00:55:17.201Z,68.30
2022-09-28T00:57:49.396Z,68.30
2022-09-28T01:00:16.819Z,68.50
2022-09-28T01:02:45.514Z,68.40
2022-09-28T01:05:13.849Z,68.60
2022-09-28T01:07:41.258Z,68.60
2022-09-28T01:10:08.873Z,68.60
2022-09-28T01:12:35.705Z,68.80
2022-09-28T01:15:05.620Z,68.70
2022-09-28T01:18:08.820Z,68.80
2022-09-28T01:20:54.147Z,68.70
2022-09-28T01:23:39.370Z,68.70
2022-09-28T01:26:31.402Z,69.00
2022-09-28T01:29:11.143Z,68.90
2022-09-28T01:31:44.462Z,69.20
2022-09-28T01:34:18.711Z,69.30
2022-09-28T01:36:52.000Z,69.30
2022-09-28T01:39:30.783Z,69.50
2022-09-28T01:42:02.859Z,69.50
2022-09-28T01:44:39.795Z,69.60
2022-09-28T01:47:11.679Z,69.50
2022-09-28T01:49:46.042Z,69.70
2022-09-28T01:52:19.361Z,69.60
2022-09-28T01:54:55.077Z,69.70
2022-09-28T01:57:49.785Z,69.70
2022-09-28T02:00:19.092Z,69.80
2022-09-28T02:02:55.638Z,69.80
2022-09-28T02:05:33.614Z,69.90
2022-09-28T02:08:28.512Z,69.80
2022-09-28T02:11:18.695Z,69.70
2022-09-28T02:13:56.824Z,69.80
2022-09-28T02:16:40.673Z,69.80
2022-09-28T02:19:18.051Z,69.80
2022-09-28T02:22:06.434Z,69.80
2022-09-28T02:24:40.875Z,69.70
2022-09-28T02:27:18.164Z,69.90
2022-09-28T02:29:44.994Z,70.00
2022-09-28T02:32:11.948Z,70.00
2022-09-28T02:34:38.958Z,70.00
2022-09-28T02:37:05.886Z,69.90
2022-09-28T02:39:32.680Z,70.00
2022-09-28T02:42:14.657Z,70.10
2022-09-28T02:44:47.178Z,70.00
2022-09-28T02:47:31.512Z,70.00
2022-09-28T02:50:06.976Z,69.90
2022-09-28T02:52:59.976Z,70.10
2022-09-28T02:55:32.719Z,70.10
2022-09-28T02:58:08.434Z,70.20
2022-09-28T03:00:44.849Z,69.90
2022-09-28T03:03:39.398Z,69.90
2022-09-28T03:06:24.212Z,70.20
2022-09-28T03:08:56.703Z,70.10
2022-09-28T03:11:32.085Z,70.10
2022-09-28T03:13:59.486Z,70.20
2022-09-28T03:16:27.624Z,70.40
2022-09-28T03:18:54.547Z,70.30
2022-09-28T03:21:21.367Z,70.30
2022-09-28T03:23:48.147Z,70.30
2022-09-28T03:26:16.948Z,70.20
2022-09-28T03:32:34.913Z,70.10
2022-09-28T03:35:01.871Z,70.40
2022-09-28T03:37:28.960Z,70.30
2022-09-28T03:39:55.732Z,70.40
2022-09-28T03:42:22.629Z,70.40
2022-09-28T03:44:49.429Z,70.40
2022-09-28T03:47:18.005Z,70.40
2022-09-28T03:49:45.675Z,70.30
2022-09-28T03:52:13.818Z,70.30
2022-09-28T03:54:42.943Z,70.20
2022-09-28T03:57:12.698Z,70.30
2022-09-28T03:59:39.483Z,70.20
2022-09-28T04:02:06.602Z,70.20
2022-09-28T04:04:33.525Z,70.40
2022-09-28T04:07:00.350Z,70.10
2022-09-28T04:09:27.190Z,70.20
2022-09-28T04:12:03.941Z,70.40
2022-09-28T04:14:31.350Z,70.20
2022-09-28T04:16:58.218Z,70.10
2022-09-28T04:19:25.357Z,70.10
2022-09-28T04:21:52.314Z,70.20
2022-09-28T04:24:20.357Z,69.80
2022-09-28T04:26:47.282Z,69.70
2022-09-28T04:29:17.094Z,69.50
2022-09-28T04:31:48.183Z,69.50
2022-09-28T04:34:17.647Z,69.30
2022-09-28T04:36:45.209Z,69.10
2022-09-28T04:39:14.202Z,68.80
2022-09-28T04:41:42.099Z,68.20
2022-09-28T04:44:09.610Z,67.40
2022-09-28T04:46:36.740Z,66.50
2022-09-28T04:49:03.952Z,64.70
2022-09-28T04:51:31.727Z,63.70
2022-09-28T04:53:59.020Z,62.60
2022-09-28T04:56:25.844Z,61.90
2022-09-28T04:58:53.009Z,61.00
2022-09-28T05:01:23.576Z,60.10
2022-09-28T05:03:54.117Z,59.20
2022-09-28T05:06:22.721Z,58.70
2022-09-28T05:08:49.599Z,58.30
2022-09-28T05:11:16.428Z,58.10
2022-09-28T05:13:45.566Z,58.00
2022-09-28T05:16:14.266Z,56.90
2022-09-28T05:18:41.235Z,56.60
2022-09-28T05:21:12.885Z,55.00
2022-09-28T05:23:40.986Z,54.40
2022-09-28T05:26:07.927Z,53.30
2022-09-28T05:28:34.933Z,52.00
2022-09-28T05:31:05.708Z,51.00
2022-09-28T05:33:33.606Z,49.60
2022-09-28T05:36:01.813Z,49.00
2022-09-28T05:38:30.096Z,48.30
2022-09-28T05:40:57.333Z,47.80
2022-09-28T05:43:24.442Z,47.40
2022-09-28T05:45:55.371Z,46.10
2022-09-28T05:48:23.193Z,46.20
2022-09-28T05:50:53.336Z,44.60
2022-09-28T05:53:20.308Z,45.50
2022-09-28T05:55:47.188Z,44.60
2022-09-28T05:58:14.242Z,44.60
2022-09-28T06:00:41.037Z,44.60
2022-09-28T06:03:13.156Z,44.50
2022-09-28T06:05:40.181Z,42.80
2022-09-28T06:08:10.266Z,43.60
2022-09-28T06:10:37.041Z,42.70
2022-09-28T06:13:03.942Z,43.00
2022-09-28T06:15:32.720Z,42.10
2022-09-28T06:18:00.547Z,42.40
2022-09-28T06:20:28.976Z,41.00
2022-09-28T06:22:56.075Z,41.10
2022-09-28T06:25:24.760Z,40.60
2022-09-28T06:28:06.626Z,40.20
2022-09-28T06:30:35.044Z,39.80
2022-09-28T06:33:02.445Z,39.40
2022-09-28T06:35:30.984Z,39.00
2022-09-28T06:37:59.997Z,38.70
2022-09-28T06:40:27.797Z,38.30
2022-09-28T06:43:10.153Z,37.90
2022-09-28T06:45:37.860Z,37.60
2022-09-28T06:48:05.562Z,37.50
2022-09-28T06:50:37.590Z,37.30
2022-09-28T06:53:12.177Z,37.30
2022-09-28T06:55:46.096Z,37.00
2022-09-28T06:58:16.083Z,36.90
2022-09-28T07:00:43.035Z,36.80
2022-09-28T07:03:21.632Z,36.80
2022-09-28T07:05:54.062Z,36.50
2022-09-28T07:08:26.009Z,36.40
2022-09-28T07:10:56.747Z,36.20
2022-09-28T07:13:47.773Z,36.10
2022-09-28T07:16:12.863Z,35.90
2022-09-28T07:18:40.470Z,35.90
2022-09-28T07:21:08.359Z,36.10
2022-09-28T07:23:47.044Z,36.20
2022-09-28T07:26:23.076Z,36.10
2022-09-28T07:28:51.090Z,36.40
2022-09-28T07:31:18.019Z,36.30
2022-09-28T07:33:47.162Z,36.20
2022-09-28T07:36:17.861Z,36.10
2022-09-28T07:38:44.646Z,36.10
2022-09-28T07:41:11.454Z,36.00
2022-09-28T07:43:41.452Z,36.10
2022-09-28T07:46:12.440Z,36.40
2022-09-28T07:48:41.215Z,36.70
2022-09-28T07:51:08.947Z,36.60
2022-09-28T07:53:35.917Z,36.60
2022-09-28T07:56:09.016Z,36.40
2022-09-28T07:58:39.729Z,36.20
2022-09-28T08:01:11.823Z,36.20
2022-09-28T08:03:39.677Z,35.80
2022-09-28T08:06:11.138Z,35.70
2022-09-28T08:08:38.554Z,35.60
2022-09-28T08:11:07.161Z,35.50
2022-09-28T08:13:33.931Z,35.30
2022-09-28T08:16:01.790Z,35.40
2022-09-28T08:18:28.957Z,35.10
2022-09-28T08:21:14.102Z,35.30
2022-09-28T08:23:41.108Z,35.20
2022-09-28T08:26:11.015Z,35.10
2022-09-28T08:28:40.448Z,35.10
2022-09-28T08:31:07.466Z,35.20
2022-09-28T08:33:35.203Z,35.20
2022-09-28T08:36:04.345Z,35.20
2022-09-28T08:38:32.153Z,35.30
2022-09-28T08:41:26.949Z,35.10
2022-09-28T08:44:12.604Z,34.90
2022-09-28T08:46:45.467Z,35.10
2022-09-28T08:49:29.731Z,34.80
2022-09-28T08:52:05.716Z,35.10
2022-09-28T08:54:56.896Z,35.00
2022-09-28T08:57:29.199Z,34.80
2022-09-28T08:59:58.540Z,34.50
2022-09-28T09:02:39.261Z,34.30
2022-09-28T09:05:19.998Z,33.90
2022-09-28T09:08:25.140Z,33.70
2022-09-28T09:11:12.295Z,33.40
2022-09-28T09:13:54.173Z,33.50
2022-09-28T09:16:42.333Z,33.20
2022-09-28T09:19:09.262Z,33.10
2022-09-28T09:21:56.006Z,33.00
2022-09-28T09:24:31.247Z,33.00
2022-09-28T09:27:21.131Z,33.00
2022-09-28T09:29:53.753Z,33.00
2022-09-28T09:32:34.180Z,33.00
2022-09-28T09:35:09.846Z,33.10
2022-09-28T09:37:42.760Z,33.00
2022-09-28T09:40:26.893Z,33.20
2022-09-28T09:43:05.014Z,33.20
2022-09-28T09:45:42.303Z,33.30
2022-09-28T09:48:21.477Z,33.10
2022-09-28T09:50:59.387Z,33.10
2022-09-28T09:53:38.619Z,33.20
2022-09-28T09:56:17.541Z,33.20
2022-09-28T09:58:50.183Z,33.10
2022-09-28T10:01:21.379Z,33.40
2022-09-28T10:03:49.448Z,33.90
2022-09-28T10:06:20.456Z,33.90
2022-09-28T10:09:01.245Z,34.10
2022-09-28T10:11:36.119Z,34.70
2022-09-28T10:14:04.582Z,35.30
2022-09-28T10:16:33.249Z,36.30
2022-09-28T10:19:00.924Z,37.30
2022-09-28T10:21:28.838Z,38.20
2022-09-28T10:23:58.699Z,38.40
2022-09-28T10:26:38.706Z,38.90
2022-09-28T10:29:14.686Z,39.20
2022-09-28T10:31:48.944Z,39.10
2022-09-28T10:34:26.449Z,38.90
2022-09-28T10:36:55.955Z,38.60
2022-09-28T10:39:42.403Z,38.60
2022-09-28T10:42:11.681Z,38.80
2022-09-28T10:44:51.920Z,38.90
2022-09-28T10:47:22.241Z,38.70
2022-09-28T10:49:51.131Z,39.20
2022-09-28T10:52:38.032Z,39.80
2022-09-28T10:55:26.456Z,40.80
2022-09-28T10:57:53.317Z,41.50
2022-09-28T11:00:41.641Z,41.50
2022-09-28T11:03:26.669Z,42.10
2022-09-28T11:06:06.089Z,41.50
2022-09-28T11:08:41.934Z,41.60
2022-09-28T11:11:17.543Z,41.80
2022-09-28T11:13:47.582Z,42.20
2022-09-28T11:16:29.296Z,41.90
2022-09-28T11:18:58.553Z,41.80
2022-09-28T11:21:32.705Z,41.70
2022-09-28T11:24:19.412Z,41.40
2022-09-28T11:26:50.280Z,40.90
2022-09-28T11:29:21.402Z,40.60
2022-09-28T11:31:48.552Z,41.10
2022-09-28T11:34:36.449Z,40.80
2022-09-28T11:37:22.048Z,41.40
2022-09-28T11:39:51.862Z,41.00
2022-09-28T11:42:24.902Z,41.20
2022-09-28T11:45:04.331Z,41.10
2022-09-28T11:47:57.696Z,41.40
2022-09-28T11:50:46.730Z,41.30
2022-09-28T11:53:13.485Z,41.60
2022-09-28T11:55:46.133Z,41.50
2022-09-28T11:58:22.802Z,41.90
2022-09-28T12:01:04.007Z,42.10
2022-09-28T12:03:45.804Z,41.70
2022-09-28T12:06:22.213Z,42.00
2022-09-28T12:08:54.997Z,41.90
2022-09-28T12:11:27.135Z,41.90
2022-09-28T12:13:57.536Z,42.50
2022-09-28T12:17:04.309Z,42.70
2022-09-28T12:19:30.038Z,42.90
2022-09-28T12:22:00.977Z,43.00
2022-09-28T12:24:40.645Z,43.60
2022-09-28T12:27:14.869Z,44.10
2022-09-28T12:29:49.619Z,43.70
2022-09-28T12:32:53.328Z,44.00
2022-09-28T12:35:20.083Z,44.70
2022-09-28T12:38:24.515Z,45.00
2022-09-28T12:41:16.674Z,44.90
2022-09-28T12:44:05.975Z,45.10
2022-09-28T12:47:21.869Z,45.20
2022-09-28T12:50:44.777Z,45.10
2022-09-28T12:53:30.395Z,45.50
2022-09-28T12:56:00.240Z,45.50
2022-09-28T12:58:29.982Z,45.50
2022-09-28T13:01:02.597Z,45.40
2022-09-28T13:03:51.000Z,45.60
2022-09-28T13:06:36.554Z,45.80
2022-09-28T13:09:16.726Z,46.00
2022-09-28T13:11:58.785Z,46.30
2022-09-28T13:14:25.553Z,46.50
2022-09-28T13:17:17.216Z,46.40
2022-09-28T13:20:04.222Z,46.60
2022-09-28T13:22:49.919Z,46.60
2022-09-28T13:25:20.579Z,46.90
2022-09-28T13:28:02.939Z,47.20
2022-09-28T13:30:31.112Z,47.50
2022-09-28T13:33:00.817Z,47.70
2022-09-28T13:35:28.581Z,47.80
2022-09-28T13:38:20.908Z,48.20
2022-09-28T13:41:06.256Z,48.50
2022-09-28T13:44:11.024Z,48.50
2022-09-28T13:46:49.713Z,48.90
2022-09-28T13:49:39.608Z,49.20
2022-09-28T13:52:13.523Z,49.10
2022-09-28T13:55:00.285Z,49.30
2022-09-28T13:57:37.291Z,49.50
2022-09-28T14:00:11.934Z,49.50
2022-09-28T14:02:49.310Z,49.80
2022-09-28T14:05:41.245Z,50.00
2022-09-28T14:08:23.155Z,49.60
2022-09-28T14:11:17.209Z,50.00
2022-09-28T14:13:43.963Z,50.10
2022-09-28T14:16:21.979Z,50.50
2022-09-28T14:19:02.809Z,50.50
2022-09-28T14:22:00.462Z,50.60
2022-09-28T14:24:42.240Z,50.80
2022-09-28T14:27:09.182Z,50.80
2022-09-28T14:29:38.236Z,50.90
2022-09-28T14:32:08.195Z,51.50
2022-09-28T14:34:46.897Z,51.40
2022-09-28T14:37:52.709Z,51.20
2022-09-28T14:40:39.770Z,51.80
2022-09-28T14:43:35.856Z,51.90
2022-09-28T14:46:11.544Z,52.10
2022-09-28T14:48:58.289Z,51.80
2022-09-28T14:51:26.229Z,51.90
2022-09-28T14:54:13.151Z,51.90
2022-09-28T14:56:45.564Z,52.20
2022-09-28T14:59:17.882Z,52.40
2022-09-28T15:02:01.093Z,52.20
2022-09-28T15:04:30.634Z,52.50
2022-09-28T15:07:00.308Z,52.60
2022-09-28T15:09:34.737Z,52.40
2022-09-28T15:12:02.384Z,52.70
2022-09-28T15:14:32.114Z,53.20
2022-09-28T15:17:03.760Z,53.20
2022-09-28T15:19:57.400Z,53.20
2022-09-28T15:22:24.293Z,53.20
2022-09-28T15:25:15.427Z,53.50
2022-09-28T15:27:42.301Z,53.50
2022-09-28T15:30:33.080Z,53.80
2022-09-28T15:33:20.390Z,55.30
2022-09-28T15:36:02.040Z,55.30
2022-09-28T15:38:30.066Z,54.90
2022-09-28T15:40:57.502Z,55.00
2022-09-28T15:43:33.216Z,55.10
2022-09-28T15:46:18.473Z,54.20
2022-09-28T15:48:55.342Z,52.90
2022-09-28T15:51:24.177Z,52.00
2022-09-28T15:53:58.362Z,50.90
2022-09-28T15:56:26.272Z,50.70
2022-09-28T15:59:23.222Z,50.30
2022-09-28T16:02:25.616Z,49.80
2022-09-28T16:04:55.232Z,49.60
2022-09-28T16:07:28.082Z,49.40
2022-09-28T16:10:05.280Z,49.60
2022-09-28T16:12:38.225Z,49.50
2022-09-28T16:15:25.504Z,49.10
2022-09-28T16:17:56.016Z,49.10
2022-09-28T16:20:38.210Z,49.00
2022-09-28T16:23:33.226Z,49.30
2022-09-28T16:26:05.524Z,50.20
2022-09-28T16:52:37.543Z,50.50
2022-09-28T16:55:39.682Z,51.20
2022-09-28T16:58:04.898Z,52.00
